• Join FlightAware (Why Join?)
  • Login
  • US Flag 
07:27AM EST


 

Airport Tracker/Info


-or-


 

Live Flight TrackerFlight Track Log ✈ SWA2147 ✈ 01-May-2013 ✈ KMDW - KMHT

Flight Track Log - Related Links

Times and Time Zones

All times are in EDT time to prevent confusion due to time zone crossing. See the SWA2147 flight status page for this flight to view local times or setup timezone preferences in your user account.

Time Position Orientation Groundspeed Altitude Reporting Facility
EDT Latitude Longitude Course Direction KTS MPH feet Rate Location/Type
10:22PM 41.7667 -87.8000 334° Northwest 185 213 2,400  Level Chicago TRACON
10:23PM 41.8167 -87.8333 334° Northwest 265 305 3,100 780 Climbing Chicago TRACON
10:26PM 41.8231 -87.6092 88° East 262 302 5,000 1,140 Climbing Chicago Center
10:27PM 41.8117 -87.5097 99° East 266 306 7,300 2,580 Climbing Chicago Center
10:28PM 41.8014 -87.4072 98° East 276 318 10,400 2,880 Climbing Chicago Center
10:29PM 41.7886 -87.2972 99° East 292 336 13,300 2,400 Climbing Chicago Center
10:30PM 41.7744 -87.1711 99° East 336 387 15,300 2,400 Climbing Chicago Center
10:31PM 41.7672 -87.0036 93° East 377 434 18,300 2,580 Climbing Chicago Center
10:32PM 41.7836 -86.8631 81° East 385 443 20,700 2,220 Climbing Chicago Center
10:33PM 41.7997 -86.7139 82° East 401 461 22,900 1,920 Climbing Chicago Center
10:34PM 41.8192 -86.5756 79° East 412 474 24,700 1,740 Climbing Chicago Center
10:35PM 41.8389 -86.4189 80° East 425 489 26,500 1,620 Climbing Chicago Center
10:36PM 41.8597 -86.2583 80° East 435 501 28,100 1,500 Climbing Chicago Center
10:37PM 41.8842 -86.0603 81° East 446 513 29,600 1,560 Climbing Chicago Center
10:38PM 41.9056 -85.8908 80° East 457 526 31,300 1,620 Climbing Chicago Center
10:39PM 41.9264 -85.7236 80° East 453 521 32,900 1,440 Climbing Chicago Center
10:40PM 41.9475 -85.5564 80° East 452 520 34,300 1,020 Climbing Chicago Center
10:41PM 41.9672 -85.3881 81° East 453 521 35,000 360 Climbing Chicago Center
10:42PM 41.9847 -85.2797 78° East 445 512 35,000  Level Cleveland Center
10:43PM 42.0019 -85.1103 82° East 445 512 35,000  Level Cleveland Center
10:44PM 42.0228 -84.9469 80° East 444 511 35,000  Level Cleveland Center
10:45PM 42.0394 -84.7831 82° East 444 511 35,000  Level Cleveland Center
10:46PM 42.0581 -84.6136 82° East 444 511 35,000  Level Cleveland Center
10:47PM 42.0761 -84.4497 82° East 444 511 35,000  Level Cleveland Center
10:48PM 42.0925 -84.2658 83° East 444 511 35,000  Level Cleveland Center
10:49PM 42.1103 -84.1017 82° East 444 511 35,000  Level Cleveland Center
10:50PM 42.1278 -83.9375 82° East 444 511 35,000  Level Cleveland Center
10:51PM 42.1450 -83.7675 82° East 444 511 35,000 -300 Level Cleveland Center
10:52PM 42.1600 -83.6058 83° East 444 511 34,500  Descending Cleveland Center
10:53PM 42.1783 -83.4497 81° East 450 518 35,000 240 Climbing Cleveland Center
10:54PM 42.1950 -83.2878 82° East 445 512 35,000  Level Cleveland Center
10:55PM 42.2114 -83.1175 83° East 445 512 35,000  Level Cleveland Center
10:56PM 42.2272 -82.9556 82° East 445 512 35,000  Level Cleveland Center
10:57PM 42.2431 -82.7850 83° East 445 512 35,000  Level Cleveland Center
10:58PM 42.2586 -82.6200 83° East 445 512 35,000  Level Cleveland Center
10:59PM 42.2761 -82.4550 82° East 445 512 35,000  Level Cleveland Center
11:00PM 42.3058 -82.2958 76° East 445 512 35,000  Level Cleveland Center
11:01PM 42.3561 -82.1258 68° East 439 505 35,000  Level Cleveland Center
11:02PM 42.3789 -81.9633 79° East 445 512 35,000  Level Cleveland Center
11:03PM 42.3914 -81.7975 84° East 438 504 35,000  Level Cleveland Center
11:04PM 42.4033 -81.6319 84° East 438 504 35,000  Level Cleveland Center
11:05PM 42.4172 -81.4719 83° East 437 503 35,000  Level Cleveland Center
11:06PM 42.4286 -81.3231 84° East 437 503 35,000  Level Cleveland Center
11:07PM 42.4419 -81.1600 84° East 430 495 35,000  Level Cleveland Center
11:08PM 42.4533 -80.9969 85° East 435 501 35,000  Level Cleveland Center
11:09PM 42.4661 -80.8364 84° East 435 501 35,000  Level Cleveland Center
11:10PM 42.4747 -80.6733 86° East 435 501 35,000  Level Cleveland Center
11:11PM 42.4872 -80.5044 84° East 435 501 35,000  Level Cleveland Center
11:12PM 42.4994 -80.3269 85° East 435 501 35,000  Level Cleveland Center
11:13PM 42.5094 -80.1636 85° East 435 501 35,000  Level Cleveland Center
11:14PM 42.5192 -80.0028 85° East 435 501 35,000  Level Cleveland Center
11:15PM 42.5350 -79.8394 82° East 441 507 35,000  Level Cleveland Center
11:16PM 42.5422 -79.6731 87° East 441 507 35,000  Level Cleveland Center
11:17PM 42.5531 -79.5094 85° East 441 507 35,000  Level Cleveland Center
11:18PM 42.5619 -79.3458 86° East 441 507 35,000  Level Cleveland Center
11:19PM 42.5706 -79.1792 86° East 441 507 35,000  Level Cleveland Center
11:20PM 42.5808 -79.0153 85° East 441 507 35,000  Level Cleveland Center
11:21PM 42.5889 -78.8517 86° East 441 507 35,000  Level Cleveland Center
11:22PM 42.5989 -78.6906 85° East 441 507 35,000  Level Cleveland Center
11:23PM 42.6067 -78.5294 86° East 441 507 35,000  Level Cleveland Center
11:24PM 42.6142 -78.3683 86° East 435 501 35,000  Level Cleveland Center
11:25PM 42.6214 -78.2075 86° East 430 495 35,000  Level Cleveland Center
11:26PM 42.6283 -78.0433 87° East 425 489 35,000  Level Cleveland Center
11:27PM 42.6369 -77.8822 86° East 425 489 35,000  Level Cleveland Center
11:28PM 42.6436 -77.7239 87° East 425 489 35,000  Level Cleveland Center
11:30PM 42.6564 -77.4128 87° East 428 493 35,000  Level Boston Center
11:31PM 42.6633 -77.2522 87° East 433 498 35,000  Level Boston Center
11:32PM 42.6700 -77.0889 87° East 428 493 35,000  Level Boston Center
11:33PM 42.6744 -76.9283 88° East 423 487 35,000  Level Boston Center
11:34PM 42.6806 -76.7731 87° East 423 487 35,000  Level Boston Center
11:35PM 42.6864 -76.6125 87° East 423 487 35,000  Level Boston Center
11:36PM 42.6922 -76.4547 87° East 418 481 35,000  Level Boston Center
11:37PM 42.6975 -76.2994 87° East 418 481 35,000  Level Boston Center
11:38PM 42.7003 -76.1583 88° East 418 481 35,000  Level Boston Center
11:39PM 42.7053 -76.0006 87° East 418 481 35,000  Level Boston Center
11:40PM 42.7100 -75.8453 88° East 418 481 35,000  Level Boston Center
11:41PM 42.7144 -75.6900 88° East 418 481 35,000  Level Boston Center
11:42PM 42.7189 -75.5292 88° East 418 481 35,000  Level Boston Center
11:43PM 42.7211 -75.3681 89° East 423 487 35,000  Level Boston Center
11:44PM 42.7272 -75.2128 87° East 418 481 35,000  Level Boston Center
11:45PM 42.7289 -75.0547 89° East 418 481 35,000  Level Boston Center
11:46PM 42.7300 -74.9022 89° East 418 481 35,000  Level Boston Center
11:47PM 42.7333 -74.7467 88° East 413 475 35,000  Level Boston Center
11:48PM 42.7364 -74.5942 88° East 413 475 35,000  Level Boston Center
11:49PM 42.7372 -74.4358 90° East 406 467 35,000  Level Boston Center
11:50PM 42.7417 -74.2861 88° East 401 461 35,000  Level Boston Center
11:51PM 42.7464 -74.1336 88° East 401 461 35,000  Level Boston Center
11:52PM 42.7567 -73.9811 85° East 401 461 35,000  Level Boston Center
11:53PM 42.7606 -73.8597 87° East 401 461 35,000 -660 Level Boston Center
11:54PM 42.7711 -73.6675 86° East 401 461 33,700 -1,980 Descending Boston Center
11:55PM 42.7767 -73.5150 87° East 401 461 31,100 -2,400 Descending Boston Center
11:56PM 42.7822 -73.3708 87° East 395 455 29,000 -2,100 Descending Boston Center
11:57PM 42.7875 -73.2267 87° East 384 442 27,000 -2,100 Descending Boston Center
11:58PM 42.7925 -73.0822 87° East 379 436 24,900 -2,160 Descending Boston Center
11:59PM 42.7975 -72.8844 88° East 408 470 22,300 -2,100 Descending Boston Center
12:00AM 42.8003 -72.7428 88° East 408 470 20,300 -2,040 Descending Boston Center
12:01AM 42.8067 -72.6042 86° East 383 441 18,300 -1,800 Descending Boston Center
12:02AM 42.8089 -72.4742 89° East 359 413 16,700 -1,860 Descending Boston Center
12:03AM 42.8150 -72.3411 86° East 349 402 14,600 -2,100 Descending Boston Center
12:04AM 42.8150 -72.2250 90° East 344 396 12,500 -1,980 Descending Boston Center
12:05AM 42.8083 -72.0864 94° East 339 390 10,700 -1,200 Descending Boston Center
12:06AM 42.7975 -71.9872 98° East 313 360 10,200 -1,020 Descending Boston Center
12:07AM 42.7867 -71.8772 98° East 277 319 8,700 -1,500 Descending Boston Center
12:08AM 42.7778 -71.7867 98° East 265 305 7,300 -1,560 Descending Boston Center
12:09AM 42.7667 -71.6822 98° East 255 293 5,600 -1,320 Descending Boston Center
12:10AM 42.7808 -71.6142 74° East 196 226 4,700 -1,140 Descending Boston Center
12:11AM 42.8286 -71.5739 32° Northeast 177 204 3,400 -1,320 Descending Boston Center
12:12AM 42.8594 -71.5367 42° Northeast 172 198 2,100 -1,140 Descending Boston Center
12:13AM 42.8944 -71.4908 44° Northeast 162 186 1,200 8,400 Descending Boston Center
12:14AM 42.9233 -71.4561 41° Northeast 162 186 19,000 17,760 Climbing Boston Center
12:16AM 42.9167 -71.4333 316° Northwest  Level FlightAware Approximate
12:23AM 42.9328 -71.4358 316° Northwest  Level Estimated
12:24AM 42.9328 -71.4358 316° Northwest  Level Estimated
12:25AM 42.9328 -71.4358 316° Northwest  Level Estimated
12:26AM 42.9328 -71.4358 316° Northwest  Level Estimated
12:27AM 42.9328 -71.4358 316° Northwest  Level Estimated
12:28AM 42.9328 -71.4358 316° Northwest  Level Estimated
12:29AM 42.9328 -71.4358 316° Northwest  Level Estimated
12:30AM 42.9328 -71.4358 316° Northwest  Level Estimated
12:31AM 42.9328 -71.4358 316° Northwest  Level Estimated